sensor_id;sensor_type;location;lat;lon;timestamp;P1;durP1;ratioP1;P2;durP2;ratioP2
12535;SDS011;6334;48.696;2.114;2024-01-30T00:02:08;5.93;;;4.40;;
12535;SDS011;6334;48.696;2.114;2024-01-30T00:04:38;7.10;;;4.70;;
12535;SDS011;6334;48.696;2.114;2024-01-30T00:07:09;6.67;;;4.23;;
12535;SDS011;6334;48.696;2.114;2024-01-30T00:09:39;5.97;;;4.30;;
12535;SDS011;6334;48.696;2.114;2024-01-30T00:12:10;5.73;;;4.33;;
12535;SDS011;6334;48.696;2.114;2024-01-30T00:14:43;7.13;;;5.10;;
12535;SDS011;6334;48.696;2.114;2024-01-30T00:17:13;6.03;;;4.60;;
12535;SDS011;6334;48.696;2.114;2024-01-30T00:19:44;6.70;;;4.80;;
12535;SDS011;6334;48.696;2.114;2024-01-30T00:22:14;6.67;;;4.80;;
12535;SDS011;6334;48.696;2.114;2024-01-30T00:24:45;6.27;;;4.27;;
12535;SDS011;6334;48.696;2.114;2024-01-30T00:27:15;7.47;;;4.37;;
12535;SDS011;6334;48.696;2.114;2024-01-30T00:29:46;7.83;;;4.50;;
12535;SDS011;6334;48.696;2.114;2024-01-30T00:32:18;5.67;;;4.67;;
12535;SDS011;6334;48.696;2.114;2024-01-30T00:34:48;6.73;;;4.73;;
12535;SDS011;6334;48.696;2.114;2024-01-30T00:37:18;6.77;;;4.70;;
12535;SDS011;6334;48.696;2.114;2024-01-30T00:39:49;5.40;;;4.40;;
12535;SDS011;6334;48.696;2.114;2024-01-30T00:42:19;7.63;;;4.80;;
12535;SDS011;6334;48.696;2.114;2024-01-30T00:44:50;6.33;;;4.60;;
12535;SDS011;6334;48.696;2.114;2024-01-30T00:47:20;10.47;;;5.40;;
12535;SDS011;6334;48.696;2.114;2024-01-30T00:49:51;7.43;;;4.47;;
12535;SDS011;6334;48.696;2.114;2024-01-30T00:52:21;6.33;;;4.10;;
12535;SDS011;6334;48.696;2.114;2024-01-30T00:54:52;5.97;;;4.37;;
12535;SDS011;6334;48.696;2.114;2024-01-30T00:57:25;5.50;;;4.10;;
12535;SDS011;6334;48.696;2.114;2024-01-30T00:59:55;6.17;;;4.20;;
12535;SDS011;6334;48.696;2.114;2024-01-30T01:02:26;7.23;;;4.43;;
12535;SDS011;6334;48.696;2.114;2024-01-30T01:04:56;6.83;;;4.40;;
12535;SDS011;6334;48.696;2.114;2024-01-30T01:07:27;6.07;;;3.60;;
12535;SDS011;6334;48.696;2.114;2024-01-30T01:09:57;7.60;;;4.30;;
12535;SDS011;6334;48.696;2.114;2024-01-30T01:12:28;6.10;;;3.97;;
12535;SDS011;6334;48.696;2.114;2024-01-30T01:14:58;5.83;;;4.00;;
12535;SDS011;6334;48.696;2.114;2024-01-30T01:17:29;8.40;;;4.20;;
12535;SDS011;6334;48.696;2.114;2024-01-30T01:19:59;6.23;;;4.00;;
12535;SDS011;6334;48.696;2.114;2024-01-30T01:22:29;7.90;;;4.33;;
12535;SDS011;6334;48.696;2.114;2024-01-30T01:25:00;4.30;;;3.90;;
12535;SDS011;6334;48.696;2.114;2024-01-30T01:27:30;6.47;;;4.10;;
12535;SDS011;6334;48.696;2.114;2024-01-30T01:30:01;6.13;;;4.20;;
12535;SDS011;6334;48.696;2.114;2024-01-30T01:32:31;6.90;;;3.90;;
12535;SDS011;6334;48.696;2.114;2024-01-30T01:35:02;5.83;;;3.90;;
12535;SDS011;6334;48.696;2.114;2024-01-30T01:37:32;5.07;;;4.00;;
12535;SDS011;6334;48.696;2.114;2024-01-30T01:40:03;4.97;;;3.70;;
12535;SDS011;6334;48.696;2.114;2024-01-30T01:42:33;6.03;;;4.20;;
12535;SDS011;6334;48.696;2.114;2024-01-30T01:45:04;6.17;;;4.03;;
12535;SDS011;6334;48.696;2.114;2024-01-30T01:47:34;6.07;;;4.30;;
12535;SDS011;6334;48.696;2.114;2024-01-30T01:50:05;7.27;;;4.20;;
12535;SDS011;6334;48.696;2.114;2024-01-30T01:52:35;5.50;;;4.10;;
12535;SDS011;6334;48.696;2.114;2024-01-30T01:55:06;7.30;;;4.27;;
12535;SDS011;6334;48.696;2.114;2024-01-30T01:57:36;6.00;;;4.17;;
12535;SDS011;6334;48.696;2.114;2024-01-30T02:00:07;6.90;;;4.23;;
12535;SDS011;6334;48.696;2.114;2024-01-30T02:02:37;4.90;;;4.10;;
12535;SDS011;6334;48.696;2.114;2024-01-30T02:05:08;5.17;;;4.00;;
12535;SDS011;6334;48.696;2.114;2024-01-30T02:07:38;5.50;;;4.20;;
12535;SDS011;6334;48.696;2.114;2024-01-30T02:10:08;5.77;;;4.00;;
12535;SDS011;6334;48.696;2.114;2024-01-30T02:12:39;9.23;;;4.63;;
12535;SDS011;6334;48.696;2.114;2024-01-30T02:15:13;9.07;;;4.43;;
12535;SDS011;6334;48.696;2.114;2024-01-30T02:17:40;7.13;;;4.10;;
12535;SDS011;6334;48.696;2.114;2024-01-30T02:20:10;5.70;;;4.20;;
12535;SDS011;6334;48.696;2.114;2024-01-30T02:22:41;7.47;;;4.20;;
12535;SDS011;6334;48.696;2.114;2024-01-30T02:25:11;8.23;;;4.40;;
12535;SDS011;6334;48.696;2.114;2024-01-30T02:27:42;6.93;;;4.30;;
12535;SDS011;6334;48.696;2.114;2024-01-30T02:30:12;6.53;;;4.50;;
12535;SDS011;6334;48.696;2.114;2024-01-30T02:32:43;7.73;;;4.40;;
12535;SDS011;6334;48.696;2.114;2024-01-30T02:35:13;6.20;;;4.43;;
12535;SDS011;6334;48.696;2.114;2024-01-30T02:37:43;7.33;;;4.27;;
12535;SDS011;6334;48.696;2.114;2024-01-30T02:40:14;6.50;;;4.60;;
12535;SDS011;6334;48.696;2.114;2024-01-30T02:42:44;5.40;;;4.30;;
12535;SDS011;6334;48.696;2.114;2024-01-30T02:45:15;6.43;;;4.40;;
12535;SDS011;6334;48.696;2.114;2024-01-30T02:47:45;7.77;;;4.73;;
12535;SDS011;6334;48.696;2.114;2024-01-30T02:50:16;6.47;;;4.10;;
12535;SDS011;6334;48.696;2.114;2024-01-30T02:52:46;6.43;;;4.43;;
12535;SDS011;6334;48.696;2.114;2024-01-30T02:55:17;7.23;;;4.60;;
12535;SDS011;6334;48.696;2.114;2024-01-30T02:57:47;6.20;;;4.50;;
12535;SDS011;6334;48.696;2.114;2024-01-30T03:00:18;9.77;;;4.53;;
12535;SDS011;6334;48.696;2.114;2024-01-30T03:02:48;8.13;;;4.80;;
12535;SDS011;6334;48.696;2.114;2024-01-30T03:05:19;7.83;;;4.30;;
12535;SDS011;6334;48.696;2.114;2024-01-30T03:07:49;5.87;;;4.57;;
12535;SDS011;6334;48.696;2.114;2024-01-30T03:10:19;7.33;;;4.60;;
12535;SDS011;6334;48.696;2.114;2024-01-30T03:12:50;7.10;;;4.43;;
12535;SDS011;6334;48.696;2.114;2024-01-30T03:15:20;7.60;;;4.37;;
12535;SDS011;6334;48.696;2.114;2024-01-30T03:17:51;6.83;;;4.47;;
12535;SDS011;6334;48.696;2.114;2024-01-30T03:20:22;5.53;;;4.47;;
12535;SDS011;6334;48.696;2.114;2024-01-30T03:22:53;6.87;;;4.40;;
12535;SDS011;6334;48.696;2.114;2024-01-30T03:25:23;9.90;;;4.37;;
12535;SDS011;6334;48.696;2.114;2024-01-30T03:27:54;6.30;;;4.33;;
12535;SDS011;6334;48.696;2.114;2024-01-30T03:30:24;7.03;;;4.00;;
12535;SDS011;6334;48.696;2.114;2024-01-30T03:32:55;6.70;;;4.63;;
12535;SDS011;6334;48.696;2.114;2024-01-30T03:35:25;6.63;;;4.50;;
12535;SDS011;6334;48.696;2.114;2024-01-30T03:37:55;6.67;;;4.30;;
12535;SDS011;6334;48.696;2.114;2024-01-30T03:40:26;6.53;;;4.40;;
12535;SDS011;6334;48.696;2.114;2024-01-30T03:42:56;7.23;;;4.80;;
12535;SDS011;6334;48.696;2.114;2024-01-30T03:45:26;6.90;;;4.50;;
12535;SDS011;6334;48.696;2.114;2024-01-30T03:47:56;6.57;;;4.43;;
12535;SDS011;6334;48.696;2.114;2024-01-30T03:50:27;7.10;;;4.43;;
12535;SDS011;6334;48.696;2.114;2024-01-30T03:52:57;6.90;;;4.37;;
12535;SDS011;6334;48.696;2.114;2024-01-30T03:55:28;5.20;;;4.37;;
12535;SDS011;6334;48.696;2.114;2024-01-30T03:57:58;6.00;;;4.50;;
12535;SDS011;6334;48.696;2.114;2024-01-30T04:00:29;5.37;;;4.27;;
12535;SDS011;6334;48.696;2.114;2024-01-30T04:02:59;6.73;;;4.30;;
12535;SDS011;6334;48.696;2.114;2024-01-30T04:05:30;6.60;;;4.60;;
12535;SDS011;6334;48.696;2.114;2024-01-30T04:08:00;6.83;;;4.50;;
12535;SDS011;6334;48.696;2.114;2024-01-30T04:10:31;6.20;;;4.10;;
12535;SDS011;6334;48.696;2.114;2024-01-30T04:13:01;6.53;;;4.13;;
12535;SDS011;6334;48.696;2.114;2024-01-30T04:15:31;5.70;;;4.17;;
12535;SDS011;6334;48.696;2.114;2024-01-30T04:18:03;9.63;;;4.83;;
12535;SDS011;6334;48.696;2.114;2024-01-30T04:20:34;6.20;;;4.20;;
12535;SDS011;6334;48.696;2.114;2024-01-30T04:23:04;6.03;;;4.37;;
12535;SDS011;6334;48.696;2.114;2024-01-30T04:25:36;6.80;;;4.60;;
12535;SDS011;6334;48.696;2.114;2024-01-30T04:28:07;9.00;;;4.73;;
12535;SDS011;6334;48.696;2.114;2024-01-30T04:30:37;6.57;;;4.53;;
12535;SDS011;6334;48.696;2.114;2024-01-30T04:33:08;9.23;;;4.30;;
12535;SDS011;6334;48.696;2.114;2024-01-30T04:35:38;7.57;;;4.80;;
12535;SDS011;6334;48.696;2.114;2024-01-30T04:38:08;7.80;;;4.70;;
12535;SDS011;6334;48.696;2.114;2024-01-30T04:40:39;7.77;;;4.53;;
12535;SDS011;6334;48.696;2.114;2024-01-30T04:43:09;8.17;;;4.40;;
12535;SDS011;6334;48.696;2.114;2024-01-30T04:45:40;6.57;;;4.57;;
12535;SDS011;6334;48.696;2.114;2024-01-30T04:48:10;5.07;;;4.27;;
12535;SDS011;6334;48.696;2.114;2024-01-30T04:50:41;6.90;;;4.30;;
12535;SDS011;6334;48.696;2.114;2024-01-30T04:53:11;11.13;;;4.93;;
12535;SDS011;6334;48.696;2.114;2024-01-30T04:55:42;5.70;;;4.47;;
12535;SDS011;6334;48.696;2.114;2024-01-30T04:58:12;7.20;;;4.43;;
12535;SDS011;6334;48.696;2.114;2024-01-30T05:00:43;7.97;;;4.43;;
12535;SDS011;6334;48.696;2.114;2024-01-30T05:03:13;9.57;;;4.67;;
12535;SDS011;6334;48.696;2.114;2024-01-30T05:05:43;10.37;;;4.90;;
12535;SDS011;6334;48.696;2.114;2024-01-30T05:08:15;6.73;;;4.37;;
12535;SDS011;6334;48.696;2.114;2024-01-30T05:10:46;7.20;;;4.37;;
12535;SDS011;6334;48.696;2.114;2024-01-30T05:13:16;5.63;;;4.17;;
12535;SDS011;6334;48.696;2.114;2024-01-30T05:15:46;6.93;;;4.70;;
12535;SDS011;6334;48.696;2.114;2024-01-30T05:18:17;6.23;;;4.60;;
12535;SDS011;6334;48.696;2.114;2024-01-30T05:20:49;6.57;;;4.30;;
12535;SDS011;6334;48.696;2.114;2024-01-30T05:23:18;8.03;;;4.30;;
12535;SDS011;6334;48.696;2.114;2024-01-30T05:25:48;5.27;;;4.10;;
12535;SDS011;6334;48.696;2.114;2024-01-30T05:28:19;6.47;;;4.63;;
12535;SDS011;6334;48.696;2.114;2024-01-30T05:30:49;8.03;;;5.10;;
12535;SDS011;6334;48.696;2.114;2024-01-30T05:33:20;8.67;;;4.40;;
12535;SDS011;6334;48.696;2.114;2024-01-30T05:35:50;9.07;;;4.90;;
12535;SDS011;6334;48.696;2.114;2024-01-30T05:38:21;8.93;;;4.67;;
12535;SDS011;6334;48.696;2.114;2024-01-30T05:40:51;5.93;;;4.23;;
12535;SDS011;6334;48.696;2.114;2024-01-30T05:43:22;9.67;;;5.00;;
12535;SDS011;6334;48.696;2.114;2024-01-30T05:45:52;9.33;;;5.57;;
12535;SDS011;6334;48.696;2.114;2024-01-30T05:48:22;7.30;;;4.83;;
12535;SDS011;6334;48.696;2.114;2024-01-30T05:50:53;10.30;;;4.90;;
12535;SDS011;6334;48.696;2.114;2024-01-30T05:53:23;9.33;;;4.70;;
12535;SDS011;6334;48.696;2.114;2024-01-30T05:55:54;9.03;;;4.77;;
12535;SDS011;6334;48.696;2.114;2024-01-30T05:58:24;9.97;;;5.07;;
12535;SDS011;6334;48.696;2.114;2024-01-30T06:00:55;9.43;;;4.97;;
12535;SDS011;6334;48.696;2.114;2024-01-30T06:03:25;7.30;;;4.93;;
12535;SDS011;6334;48.696;2.114;2024-01-30T06:05:56;7.87;;;4.53;;
12535;SDS011;6334;48.696;2.114;2024-01-30T06:08:26;8.83;;;5.10;;
12535;SDS011;6334;48.696;2.114;2024-01-30T06:10:57;9.33;;;4.90;;
12535;SDS011;6334;48.696;2.114;2024-01-30T06:13:27;7.13;;;5.07;;
12535;SDS011;6334;48.696;2.114;2024-01-30T06:15:57;8.37;;;4.77;;
12535;SDS011;6334;48.696;2.114;2024-01-30T06:18:28;10.37;;;4.93;;
12535;SDS011;6334;48.696;2.114;2024-01-30T06:20:58;7.53;;;4.80;;
12535;SDS011;6334;48.696;2.114;2024-01-30T06:23:29;8.10;;;5.00;;
12535;SDS011;6334;48.696;2.114;2024-01-30T06:25:59;6.90;;;4.63;;
12535;SDS011;6334;48.696;2.114;2024-01-30T06:28:30;10.17;;;5.13;;
12535;SDS011;6334;48.696;2.114;2024-01-30T06:31:00;8.33;;;4.87;;
12535;SDS011;6334;48.696;2.114;2024-01-30T06:33:29;8.13;;;5.20;;
12535;SDS011;6334;48.696;2.114;2024-01-30T06:35:58;8.60;;;4.87;;
12535;SDS011;6334;48.696;2.114;2024-01-30T06:38:28;9.97;;;5.17;;
12535;SDS011;6334;48.696;2.114;2024-01-30T06:40:58;11.83;;;5.20;;
12535;SDS011;6334;48.696;2.114;2024-01-30T06:43:28;8.20;;;5.40;;
12535;SDS011;6334;48.696;2.114;2024-01-30T06:45:59;9.13;;;5.30;;
12535;SDS011;6334;48.696;2.114;2024-01-30T06:48:29;6.37;;;4.60;;
12535;SDS011;6334;48.696;2.114;2024-01-30T06:50:59;7.73;;;5.00;;
12535;SDS011;6334;48.696;2.114;2024-01-30T06:53:30;8.90;;;5.33;;
12535;SDS011;6334;48.696;2.114;2024-01-30T06:56:00;8.07;;;5.40;;
12535;SDS011;6334;48.696;2.114;2024-01-30T06:58:33;8.67;;;5.43;;
12535;SDS011;6334;48.696;2.114;2024-01-30T07:01:02;8.83;;;5.40;;
12535;SDS011;6334;48.696;2.114;2024-01-30T07:03:32;8.33;;;5.00;;
12535;SDS011;6334;48.696;2.114;2024-01-30T07:06:01;7.80;;;5.03;;
12535;SDS011;6334;48.696;2.114;2024-01-30T07:08:32;7.73;;;5.57;;
12535;SDS011;6334;48.696;2.114;2024-01-30T07:11:07;8.93;;;5.17;;
12535;SDS011;6334;48.696;2.114;2024-01-30T07:13:34;8.37;;;5.10;;
12535;SDS011;6334;48.696;2.114;2024-01-30T07:16:03;9.90;;;5.80;;
12535;SDS011;6334;48.696;2.114;2024-01-30T07:18:34;10.73;;;5.80;;
12535;SDS011;6334;48.696;2.114;2024-01-30T07:21:04;9.90;;;6.27;;
12535;SDS011;6334;48.696;2.114;2024-01-30T07:23:34;9.33;;;6.23;;
12535;SDS011;6334;48.696;2.114;2024-01-30T07:26:10;7.87;;;5.30;;
12535;SDS011;6334;48.696;2.114;2024-01-30T07:28:36;9.07;;;5.70;;
12535;SDS011;6334;48.696;2.114;2024-01-30T07:31:06;8.73;;;5.63;;
12535;SDS011;6334;48.696;2.114;2024-01-30T07:33:35;8.73;;;5.73;;
12535;SDS011;6334;48.696;2.114;2024-01-30T07:36:05;7.23;;;5.37;;
12535;SDS011;6334;48.696;2.114;2024-01-30T07:38:35;9.57;;;5.50;;
12535;SDS011;6334;48.696;2.114;2024-01-30T07:41:04;9.67;;;5.43;;
12535;SDS011;6334;48.696;2.114;2024-01-30T07:43:34;9.17;;;4.90;;
12535;SDS011;6334;48.696;2.114;2024-01-30T07:46:04;9.20;;;5.47;;
12535;SDS011;6334;48.696;2.114;2024-01-30T07:48:33;7.97;;;5.70;;
12535;SDS011;6334;48.696;2.114;2024-01-30T07:51:03;9.30;;;5.70;;
12535;SDS011;6334;48.696;2.114;2024-01-30T07:53:33;9.83;;;5.67;;
12535;SDS011;6334;48.696;2.114;2024-01-30T07:56:03;10.13;;;5.30;;
12535;SDS011;6334;48.696;2.114;2024-01-30T07:58:32;11.27;;;5.77;;
12535;SDS011;6334;48.696;2.114;2024-01-30T08:01:02;8.80;;;5.90;;
12535;SDS011;6334;48.696;2.114;2024-01-30T08:03:32;9.30;;;5.20;;
12535;SDS011;6334;48.696;2.114;2024-01-30T08:06:01;9.10;;;5.00;;
12535;SDS011;6334;48.696;2.114;2024-01-30T08:08:31;10.10;;;5.70;;
12535;SDS011;6334;48.696;2.114;2024-01-30T08:11:02;8.33;;;5.40;;
12535;SDS011;6334;48.696;2.114;2024-01-30T08:13:31;6.93;;;5.00;;
12535;SDS011;6334;48.696;2.114;2024-01-30T08:16:01;8.40;;;5.57;;
12535;SDS011;6334;48.696;2.114;2024-01-30T08:18:31;7.97;;;5.40;;
12535;SDS011;6334;48.696;2.114;2024-01-30T08:21:02;7.80;;;5.20;;
12535;SDS011;6334;48.696;2.114;2024-01-30T08:23:31;10.53;;;5.67;;
12535;SDS011;6334;48.696;2.114;2024-01-30T08:26:01;10.17;;;5.33;;
12535;SDS011;6334;48.696;2.114;2024-01-30T08:28:31;8.17;;;5.50;;
12535;SDS011;6334;48.696;2.114;2024-01-30T08:31:01;12.27;;;5.77;;
12535;SDS011;6334;48.696;2.114;2024-01-30T08:33:30;10.27;;;5.73;;
12535;SDS011;6334;48.696;2.114;2024-01-30T08:36:01;9.63;;;5.57;;
12535;SDS011;6334;48.696;2.114;2024-01-30T08:38:31;7.57;;;5.07;;
12535;SDS011;6334;48.696;2.114;2024-01-30T08:41:00;10.13;;;5.60;;
12535;SDS011;6334;48.696;2.114;2024-01-30T08:43:30;9.43;;;6.03;;
12535;SDS011;6334;48.696;2.114;2024-01-30T08:46:01;10.47;;;5.50;;
12535;SDS011;6334;48.696;2.114;2024-01-30T08:48:30;11.83;;;6.47;;
12535;SDS011;6334;48.696;2.114;2024-01-30T08:51:02;9.47;;;5.60;;
12535;SDS011;6334;48.696;2.114;2024-01-30T08:53:31;11.60;;;6.03;;
12535;SDS011;6334;48.696;2.114;2024-01-30T08:56:02;10.07;;;6.17;;
12535;SDS011;6334;48.696;2.114;2024-01-30T08:58:31;11.37;;;6.03;;
12535;SDS011;6334;48.696;2.114;2024-01-30T09:01:00;9.77;;;5.83;;
12535;SDS011;6334;48.696;2.114;2024-01-30T09:03:30;12.17;;;6.97;;
12535;SDS011;6334;48.696;2.114;2024-01-30T09:05:59;12.20;;;6.23;;
12535;SDS011;6334;48.696;2.114;2024-01-30T09:08:30;14.23;;;6.67;;
12535;SDS011;6334;48.696;2.114;2024-01-30T09:11:01;12.23;;;6.00;;
12535;SDS011;6334;48.696;2.114;2024-01-30T09:13:30;11.97;;;6.27;;
12535;SDS011;6334;48.696;2.114;2024-01-30T09:16:00;10.90;;;5.73;;
12535;SDS011;6334;48.696;2.114;2024-01-30T09:18:29;11.20;;;5.93;;
12535;SDS011;6334;48.696;2.114;2024-01-30T09:20:59;13.40;;;6.40;;
12535;SDS011;6334;48.696;2.114;2024-01-30T09:23:29;11.40;;;6.40;;
12535;SDS011;6334;48.696;2.114;2024-01-30T09:25:59;12.90;;;6.40;;
12535;SDS011;6334;48.696;2.114;2024-01-30T09:28:29;13.10;;;6.37;;
12535;SDS011;6334;48.696;2.114;2024-01-30T09:30:58;11.50;;;6.23;;
12535;SDS011;6334;48.696;2.114;2024-01-30T09:33:28;13.27;;;6.67;;
12535;SDS011;6334;48.696;2.114;2024-01-30T09:35:57;10.67;;;5.83;;
12535;SDS011;6334;48.696;2.114;2024-01-30T09:38:27;12.63;;;7.20;;
12535;SDS011;6334;48.696;2.114;2024-01-30T09:40:57;15.00;;;6.37;;
12535;SDS011;6334;48.696;2.114;2024-01-30T09:43:26;15.33;;;6.93;;
12535;SDS011;6334;48.696;2.114;2024-01-30T09:45:57;14.83;;;7.83;;
12535;SDS011;6334;48.696;2.114;2024-01-30T09:48:27;15.47;;;7.13;;
12535;SDS011;6334;48.696;2.114;2024-01-30T09:50:57;14.13;;;6.83;;
12535;SDS011;6334;48.696;2.114;2024-01-30T09:53:28;16.70;;;7.00;;
12535;SDS011;6334;48.696;2.114;2024-01-30T09:55:57;12.13;;;6.23;;
12535;SDS011;6334;48.696;2.114;2024-01-30T09:58:28;13.20;;;6.37;;
12535;SDS011;6334;48.696;2.114;2024-01-30T10:00:58;14.30;;;6.63;;
12535;SDS011;6334;48.696;2.114;2024-01-30T10:03:27;14.63;;;7.27;;
12535;SDS011;6334;48.696;2.114;2024-01-30T10:05:57;14.43;;;7.00;;
12535;SDS011;6334;48.696;2.114;2024-01-30T10:08:27;14.03;;;6.23;;
12535;SDS011;6334;48.696;2.114;2024-01-30T10:10:56;12.60;;;5.63;;
12535;SDS011;6334;48.696;2.114;2024-01-30T10:13:27;11.80;;;6.07;;
12535;SDS011;6334;48.696;2.114;2024-01-30T10:15:56;16.17;;;7.70;;
12535;SDS011;6334;48.696;2.114;2024-01-30T10:18:26;15.33;;;7.33;;
12535;SDS011;6334;48.696;2.114;2024-01-30T10:20:56;11.80;;;6.37;;
12535;SDS011;6334;48.696;2.114;2024-01-30T10:23:25;11.63;;;6.70;;
12535;SDS011;6334;48.696;2.114;2024-01-30T10:25:56;14.00;;;7.07;;
12535;SDS011;6334;48.696;2.114;2024-01-30T10:28:27;13.17;;;6.30;;
12535;SDS011;6334;48.696;2.114;2024-01-30T10:30:57;11.00;;;6.23;;
12535;SDS011;6334;48.696;2.114;2024-01-30T10:33:26;11.83;;;5.93;;
12535;SDS011;6334;48.696;2.114;2024-01-30T10:36:05;10.57;;;5.77;;
12535;SDS011;6334;48.696;2.114;2024-01-30T10:38:31;9.53;;;6.07;;
12535;SDS011;6334;48.696;2.114;2024-01-30T10:41:03;8.77;;;5.80;;
12535;SDS011;6334;48.696;2.114;2024-01-30T10:43:36;11.83;;;6.30;;
12535;SDS011;6334;48.696;2.114;2024-01-30T10:46:29;12.23;;;6.60;;
12535;SDS011;6334;48.696;2.114;2024-01-30T10:48:58;10.70;;;5.63;;
12535;SDS011;6334;48.696;2.114;2024-01-30T10:51:28;12.33;;;6.40;;
12535;SDS011;6334;48.696;2.114;2024-01-30T10:53:59;10.20;;;6.20;;
12535;SDS011;6334;48.696;2.114;2024-01-30T10:56:29;10.73;;;6.13;;
12535;SDS011;6334;48.696;2.114;2024-01-30T10:58:58;13.63;;;6.67;;
12535;SDS011;6334;48.696;2.114;2024-01-30T11:01:28;15.30;;;6.40;;
12535;SDS011;6334;48.696;2.114;2024-01-30T11:03:58;11.93;;;6.63;;
12535;SDS011;6334;48.696;2.114;2024-01-30T11:06:27;11.60;;;6.67;;
12535;SDS011;6334;48.696;2.114;2024-01-30T11:09:00;14.00;;;6.67;;
12535;SDS011;6334;48.696;2.114;2024-01-30T11:11:32;10.13;;;6.00;;
12535;SDS011;6334;48.696;2.114;2024-01-30T11:14:01;11.23;;;5.90;;
12535;SDS011;6334;48.696;2.114;2024-01-30T11:16:33;8.70;;;5.83;;
12535;SDS011;6334;48.696;2.114;2024-01-30T11:19:04;11.83;;;6.10;;
12535;SDS011;6334;48.696;2.114;2024-01-30T11:21:33;12.23;;;6.17;;
12535;SDS011;6334;48.696;2.114;2024-01-30T11:24:03;10.37;;;5.80;;
12535;SDS011;6334;48.696;2.114;2024-01-30T11:26:33;11.80;;;6.30;;
12535;SDS011;6334;48.696;2.114;2024-01-30T11:29:03;13.30;;;6.70;;
12535;SDS011;6334;48.696;2.114;2024-01-30T11:31:32;12.50;;;6.67;;
12535;SDS011;6334;48.696;2.114;2024-01-30T11:34:02;13.37;;;7.23;;
12535;SDS011;6334;48.696;2.114;2024-01-30T11:36:32;13.83;;;6.87;;
12535;SDS011;6334;48.696;2.114;2024-01-30T11:39:02;9.10;;;6.00;;
12535;SDS011;6334;48.696;2.114;2024-01-30T11:41:32;10.17;;;6.27;;
12535;SDS011;6334;48.696;2.114;2024-01-30T11:44:03;11.33;;;6.63;;
12535;SDS011;6334;48.696;2.114;2024-01-30T11:46:31;14.70;;;7.27;;
12535;SDS011;6334;48.696;2.114;2024-01-30T11:49:01;12.30;;;6.80;;
12535;SDS011;6334;48.696;2.114;2024-01-30T11:51:30;14.63;;;8.17;;
12535;SDS011;6334;48.696;2.114;2024-01-30T11:54:00;12.77;;;6.47;;
12535;SDS011;6334;48.696;2.114;2024-01-30T11:56:30;12.93;;;6.67;;
12535;SDS011;6334;48.696;2.114;2024-01-30T11:58:59;12.83;;;6.07;;
12535;SDS011;6334;48.696;2.114;2024-01-30T12:01:29;10.20;;;5.63;;
12535;SDS011;6334;48.696;2.114;2024-01-30T12:03:59;9.30;;;5.20;;
12535;SDS011;6334;48.696;2.114;2024-01-30T12:06:28;10.63;;;5.17;;
12535;SDS011;6334;48.696;2.114;2024-01-30T12:08:58;6.80;;;4.80;;
12535;SDS011;6334;48.696;2.114;2024-01-30T12:11:27;8.77;;;4.67;;
12535;SDS011;6334;48.696;2.114;2024-01-30T12:13:57;6.77;;;3.87;;
12535;SDS011;6334;48.696;2.114;2024-01-30T12:16:27;7.60;;;4.10;;
12535;SDS011;6334;48.696;2.114;2024-01-30T12:18:59;7.50;;;3.50;;
12535;SDS011;6334;48.696;2.114;2024-01-30T12:21:31;6.67;;;3.37;;
12535;SDS011;6334;48.696;2.114;2024-01-30T12:24:01;4.43;;;3.27;;
12535;SDS011;6334;48.696;2.114;2024-01-30T12:26:30;6.87;;;3.70;;
12535;SDS011;6334;48.696;2.114;2024-01-30T12:29:00;3.37;;;2.80;;
12535;SDS011;6334;48.696;2.114;2024-01-30T12:31:31;5.47;;;3.17;;
12535;SDS011;6334;48.696;2.114;2024-01-30T12:34:09;5.20;;;3.07;;
12535;SDS011;6334;48.696;2.114;2024-01-30T12:36:39;6.60;;;2.83;;
12535;SDS011;6334;48.696;2.114;2024-01-30T12:39:11;5.57;;;3.50;;
12535;SDS011;6334;48.696;2.114;2024-01-30T12:41:41;4.13;;;2.87;;
12535;SDS011;6334;48.696;2.114;2024-01-30T12:44:13;3.00;;;2.60;;
12535;SDS011;6334;48.696;2.114;2024-01-30T12:46:41;3.97;;;3.20;;
12535;SDS011;6334;48.696;2.114;2024-01-30T12:49:13;3.40;;;2.90;;
12535;SDS011;6334;48.696;2.114;2024-01-30T12:51:43;5.83;;;3.40;;
12535;SDS011;6334;48.696;2.114;2024-01-30T12:54:12;3.57;;;2.63;;
12535;SDS011;6334;48.696;2.114;2024-01-30T12:56:42;3.07;;;2.43;;
12535;SDS011;6334;48.696;2.114;2024-01-30T12:59:13;3.93;;;2.43;;
12535;SDS011;6334;48.696;2.114;2024-01-30T13:01:43;5.53;;;2.93;;
12535;SDS011;6334;48.696;2.114;2024-01-30T13:04:12;5.90;;;2.97;;
12535;SDS011;6334;48.696;2.114;2024-01-30T13:06:42;3.57;;;2.50;;
12535;SDS011;6334;48.696;2.114;2024-01-30T13:09:12;4.03;;;2.50;;
12535;SDS011;6334;48.696;2.114;2024-01-30T13:11:42;4.80;;;2.47;;
12535;SDS011;6334;48.696;2.114;2024-01-30T13:14:12;3.43;;;1.97;;
12535;SDS011;6334;48.696;2.114;2024-01-30T13:16:42;3.17;;;2.43;;
12535;SDS011;6334;48.696;2.114;2024-01-30T13:19:11;2.43;;;2.23;;
12535;SDS011;6334;48.696;2.114;2024-01-30T13:21:49;2.87;;;2.00;;
12535;SDS011;6334;48.696;2.114;2024-01-30T13:24:20;2.00;;;1.87;;
12535;SDS011;6334;48.696;2.114;2024-01-30T13:26:51;2.77;;;2.20;;
12535;SDS011;6334;48.696;2.114;2024-01-30T13:29:21;2.50;;;2.30;;
12535;SDS011;6334;48.696;2.114;2024-01-30T13:31:50;3.30;;;1.93;;
12535;SDS011;6334;48.696;2.114;2024-01-30T13:34:21;3.43;;;2.27;;
12535;SDS011;6334;48.696;2.114;2024-01-30T13:36:51;3.33;;;2.30;;
12535;SDS011;6334;48.696;2.114;2024-01-30T13:39:20;2.40;;;2.20;;
12535;SDS011;6334;48.696;2.114;2024-01-30T13:41:50;2.20;;;2.10;;
12535;SDS011;6334;48.696;2.114;2024-01-30T13:44:21;2.80;;;2.17;;
12535;SDS011;6334;48.696;2.114;2024-01-30T13:46:50;2.87;;;2.07;;
12535;SDS011;6334;48.696;2.114;2024-01-30T13:49:20;3.67;;;2.37;;
12535;SDS011;6334;48.696;2.114;2024-01-30T13:51:51;2.17;;;1.97;;
12535;SDS011;6334;48.696;2.114;2024-01-30T13:54:22;2.27;;;1.80;;
12535;SDS011;6334;48.696;2.114;2024-01-30T13:56:53;2.23;;;1.90;;
12535;SDS011;6334;48.696;2.114;2024-01-30T13:59:22;2.53;;;2.00;;
12535;SDS011;6334;48.696;2.114;2024-01-30T14:01:52;2.10;;;1.33;;
12535;SDS011;6334;48.696;2.114;2024-01-30T14:04:23;1.73;;;1.47;;
12535;SDS011;6334;48.696;2.114;2024-01-30T14:06:52;2.93;;;1.70;;
12535;SDS011;6334;48.696;2.114;2024-01-30T14:09:22;3.72;;;1.98;;
12535;SDS011;6334;48.696;2.114;2024-01-30T14:11:53;1.97;;;1.63;;
12535;SDS011;6334;48.696;2.114;2024-01-30T14:14:23;1.90;;;1.80;;
12535;SDS011;6334;48.696;2.114;2024-01-30T14:16:53;1.93;;;1.83;;
12535;SDS011;6334;48.696;2.114;2024-01-30T14:19:22;2.60;;;2.30;;
12535;SDS011;6334;48.696;2.114;2024-01-30T14:21:53;3.70;;;2.00;;
12535;SDS011;6334;48.696;2.114;2024-01-30T14:24:23;2.50;;;1.47;;
12535;SDS011;6334;48.696;2.114;2024-01-30T14:26:54;2.57;;;1.37;;
12535;SDS011;6334;48.696;2.114;2024-01-30T14:29:25;1.50;;;1.37;;
12535;SDS011;6334;48.696;2.114;2024-01-30T14:31:54;2.60;;;1.73;;
12535;SDS011;6334;48.696;2.114;2024-01-30T14:34:24;2.70;;;1.87;;
12535;SDS011;6334;48.696;2.114;2024-01-30T14:36:54;1.50;;;1.40;;
12535;SDS011;6334;48.696;2.114;2024-01-30T14:39:23;2.07;;;1.60;;
12535;SDS011;6334;48.696;2.114;2024-01-30T14:41:53;3.77;;;1.37;;
12535;SDS011;6334;48.696;2.114;2024-01-30T14:44:23;1.40;;;1.30;;
12535;SDS011;6334;48.696;2.114;2024-01-30T14:46:53;3.17;;;2.00;;
12535;SDS011;6334;48.696;2.114;2024-01-30T14:49:22;2.07;;;1.63;;
12535;SDS011;6334;48.696;2.114;2024-01-30T14:51:52;1.47;;;1.30;;
12535;SDS011;6334;48.696;2.114;2024-01-30T14:54:22;1.80;;;1.70;;
12535;SDS011;6334;48.696;2.114;2024-01-30T14:56:53;3.90;;;1.90;;
12535;SDS011;6334;48.696;2.114;2024-01-30T14:59:22;2.00;;;1.80;;
12535;SDS011;6334;48.696;2.114;2024-01-30T15:01:52;1.97;;;1.87;;
12535;SDS011;6334;48.696;2.114;2024-01-30T15:04:23;3.63;;;2.03;;
12535;SDS011;6334;48.696;2.114;2024-01-30T15:06:53;1.83;;;1.63;;
12535;SDS011;6334;48.696;2.114;2024-01-30T15:09:22;1.57;;;1.47;;
12535;SDS011;6334;48.696;2.114;2024-01-30T15:11:53;1.74;;;1.50;;
12535;SDS011;6334;48.696;2.114;2024-01-30T15:14:23;2.57;;;1.67;;
12535;SDS011;6334;48.696;2.114;2024-01-30T15:16:53;2.00;;;1.80;;